createdAt,value
2018-10-03T00:00:07.083Z,100468.91
2018-10-03T00:02:56.254Z,100477.03
2018-10-03T00:05:57.803Z,100479.89
2018-10-03T00:08:47.143Z,100485.79
2018-10-03T00:11:35.610Z,100481.03
2018-10-03T00:14:22.763Z,100483.19
2018-10-03T00:17:25.392Z,100485.23
2018-10-03T00:20:13.944Z,100495.80
2018-10-03T00:23:01.656Z,100479.91
2018-10-03T00:25:49.370Z,100501.05
2018-10-03T00:28:39.528Z,100494.27
2018-10-03T00:31:28.589Z,100500.52
2018-10-03T00:34:23.992Z,100509.85
2018-10-03T00:37:11.715Z,100493.89
2018-10-03T00:40:08.831Z,100503.55
2018-10-03T00:42:56.584Z,100500.09
2018-10-03T00:45:46.482Z,100496.97
2018-10-03T00:48:34.549Z,100499.67
2018-10-03T00:51:25.634Z,100505.07
2018-10-03T00:54:14.304Z,100511.39
2018-10-03T00:57:01.654Z,100511.01
2018-10-03T00:59:50.595Z,100519.02
2018-10-03T01:02:38.614Z,100514.23
2018-10-03T01:05:25.997Z,100535.50
2018-10-03T01:08:16.815Z,100519.84
2018-10-03T01:11:10.355Z,100536.23
2018-10-03T01:14:05.356Z,100535.19
2018-10-03T01:16:57.784Z,100545.72
2018-10-03T01:19:47.305Z,100546.67
2018-10-03T01:22:34.924Z,100544.52
2018-10-03T01:25:24.244Z,100550.08
2018-10-03T01:28:13.819Z,100544.36
2018-10-03T01:31:01.837Z,100534.66
2018-10-03T01:33:50.995Z,100539.88
2018-10-03T01:36:38.851Z,100547.11
2018-10-03T01:39:27.453Z,100551.20
2018-10-03T01:42:15.615Z,100557.19
2018-10-03T01:45:05.329Z,100556.56
2018-10-03T01:47:54.425Z,100568.02
2018-10-03T01:50:42.856Z,100565.74
2018-10-03T01:53:31.764Z,100575.23
2018-10-03T01:56:23.232Z,100568.80
2018-10-03T01:59:12.576Z,100572.30
2018-10-03T02:02:01.679Z,100573.34
2018-10-03T02:04:52.857Z,100576.47
2018-10-03T02:07:41.301Z,100569.55
2018-10-03T02:10:35.258Z,100568.30
2018-10-03T02:13:30.508Z,100562.28
2018-10-03T02:16:20.872Z,100567.51
2018-10-03T02:19:25.136Z,100572.97
2018-10-03T02:22:13.422Z,100576.25
2018-10-03T02:25:02.079Z,100579.13
2018-10-03T02:27:50.426Z,100581.05
2018-10-03T02:30:39.401Z,100573.77
2018-10-03T02:33:42.457Z,100575.56
2018-10-03T02:36:30.403Z,100584.31
2018-10-03T02:39:20.458Z,100578.16
2018-10-03T02:42:08.362Z,100582.80
2018-10-03T02:44:56.659Z,100586.67
2018-10-03T02:47:44.609Z,100588.12
2018-10-03T02:50:32.479Z,100585.27
2018-10-03T02:53:30.617Z,100592.50
2018-10-03T02:56:18.013Z,100589.41
2018-10-03T02:59:06.141Z,100589.05
2018-10-03T03:01:55.817Z,100595.75
2018-10-03T03:04:43.396Z,100606.52
2018-10-03T03:07:30.788Z,100597.05
2018-10-03T03:10:18.848Z,100598.52
2018-10-03T03:13:06.544Z,100596.98
2018-10-03T03:15:54.417Z,100605.10
2018-10-03T03:18:41.600Z,100602.41
2018-10-03T03:21:46.177Z,100604.38
2018-10-03T03:24:33.531Z,100597.04
2018-10-03T03:27:21.063Z,100602.93
2018-10-03T03:30:09.136Z,100603.84
2018-10-03T03:32:56.869Z,100604.34
2018-10-03T03:35:44.558Z,100604.27
2018-10-03T03:38:32.119Z,100609.02
2018-10-03T03:41:20.343Z,100613.55
2018-10-03T03:44:07.884Z,100611.08
2018-10-03T03:46:55.760Z,100623.77
2018-10-03T03:49:43.500Z,100621.37
2018-10-03T03:52:30.859Z,100622.64
2018-10-03T03:55:18.652Z,100621.14
2018-10-03T03:58:06.844Z,100616.02
2018-10-03T04:00:54.848Z,100615.02
2018-10-03T04:03:58.344Z,100611.64
2018-10-03T04:06:45.836Z,100609.70
2018-10-03T04:09:33.432Z,100608.50
2018-10-03T04:12:29.544Z,100600.51
2018-10-03T04:15:18.135Z,100602.55
2018-10-03T04:18:06.261Z,100608.95
2018-10-03T04:20:53.811Z,100621.97
2018-10-03T04:23:41.685Z,100616.33
2018-10-03T04:26:30.632Z,100614.53
2018-10-03T04:29:17.665Z,100617.14
2018-10-03T04:32:05.611Z,100621.72
2018-10-03T04:34:53.520Z,100633.90
2018-10-03T04:37:41.826Z,100631.30
2018-10-03T04:40:40.438Z,100629.26
2018-10-03T04:43:28.050Z,100628.49
2018-10-03T04:46:16.434Z,100637.80
2018-10-03T04:49:04.355Z,100636.48
2018-10-03T04:52:01.485Z,100640.33
2018-10-03T04:54:49.540Z,100650.36
2018-10-03T04:57:37.039Z,100648.91
2018-10-03T05:00:25.405Z,100657.69
2018-10-03T05:03:13.794Z,100649.59
2018-10-03T05:06:01.260Z,100656.60
2018-10-03T05:08:48.986Z,100660.16
2018-10-03T05:11:36.707Z,100673.32
2018-10-03T05:17:38.069Z,100662.38
2018-10-03T05:20:25.969Z,100663.92
2018-10-03T05:23:13.907Z,100672.57
2018-10-03T05:26:01.613Z,100677.53
2018-10-03T05:28:56.100Z,100679.56
2018-10-03T05:31:43.991Z,100689.89
2018-10-03T05:34:31.676Z,100686.41
2018-10-03T05:37:19.638Z,100691.03
2018-10-03T05:40:07.283Z,100694.55
2018-10-03T05:42:54.851Z,100699.38
2018-10-03T05:45:42.782Z,100706.22
2018-10-03T05:48:30.895Z,100710.71
2018-10-03T05:51:20.318Z,100707.69
2018-10-03T05:54:07.648Z,100715.16
2018-10-03T05:56:55.213Z,100719.98
2018-10-03T05:59:43.270Z,100724.86
2018-10-03T06:02:37.295Z,100703.38
2018-10-03T06:05:41.739Z,100717.38
2018-10-03T06:08:33.254Z,100708.16
2018-10-03T06:11:23.138Z,100710.45
2018-10-03T06:14:10.562Z,100703.22
2018-10-03T06:16:58.774Z,100713.39
2018-10-03T06:19:47.274Z,100727.20
2018-10-03T06:22:35.682Z,100724.55
2018-10-03T06:31:40.649Z,100761.03
2018-10-03T06:37:35.772Z,100743.00
2018-10-03T06:40:23.705Z,100748.78
2018-10-03T06:43:16.919Z,100745.28
2018-10-03T06:46:05.303Z,100761.20
2018-10-03T06:48:53.366Z,100757.94
2018-10-03T06:51:41.884Z,100771.20
2018-10-03T06:57:35.386Z,100786.78
2018-10-03T07:00:22.519Z,100785.09
2018-10-03T07:03:17.655Z,100785.33
2018-10-03T07:09:14.984Z,100791.12
2018-10-03T07:12:05.876Z,100791.12
2018-10-03T07:15:01.901Z,100790.11
2018-10-03T07:17:50.199Z,100792.40
2018-10-03T07:23:45.738Z,100800.20
2018-10-03T07:29:40.730Z,100804.64
2018-10-03T07:32:35.996Z,100790.48
2018-10-03T07:38:29.987Z,100821.70
2018-10-03T07:41:17.955Z,100822.58
2018-10-03T07:44:05.229Z,100831.15
2018-10-03T07:50:01.210Z,100842.30
2018-10-03T07:52:50.621Z,100842.00
2018-10-03T07:55:38.243Z,100848.44
2018-10-03T07:58:26.034Z,100860.35
2018-10-03T08:01:14.648Z,100842.25
2018-10-03T08:04:02.210Z,100851.50
2018-10-03T08:06:57.134Z,100858.91
2018-10-03T08:09:45.453Z,100871.95
2018-10-03T08:12:33.722Z,100876.00
2018-10-03T08:15:21.438Z,100873.91
2018-10-03T08:18:09.511Z,100869.58
2018-10-03T08:20:56.828Z,100864.95
2018-10-03T08:23:44.976Z,100871.89
2018-10-03T08:26:33.477Z,100881.05
2018-10-03T08:29:22.333Z,100875.59
2018-10-03T08:32:20.750Z,100877.63
2018-10-03T08:35:08.773Z,100874.22
2018-10-03T08:37:57.132Z,100879.55
2018-10-03T08:40:51.287Z,100883.58
2018-10-03T08:43:47.444Z,100896.05
2018-10-03T08:46:35.592Z,100889.23
2018-10-03T08:49:23.695Z,100890.97
2018-10-03T08:52:11.946Z,100891.19
2018-10-03T08:54:59.629Z,100897.05
2018-10-03T08:57:47.478Z,100896.30
2018-10-03T09:00:35.203Z,100902.27
2018-10-03T09:03:26.154Z,100903.95
2018-10-03T09:06:13.892Z,100893.58
2018-10-03T09:09:00.928Z,100917.23
2018-10-03T09:11:48.276Z,100920.13
2018-10-03T09:14:43.194Z,100920.98
2018-10-03T09:17:33.098Z,100933.72
2018-10-03T09:20:20.179Z,100921.45
2018-10-03T09:23:07.609Z,100924.41
2018-10-03T09:25:55.002Z,100920.63
2018-10-03T09:28:42.206Z,100945.20
2018-10-03T09:31:29.646Z,100938.53
2018-10-03T09:34:16.930Z,100942.66
2018-10-03T09:40:10.940Z,100959.59
2018-10-03T09:42:58.844Z,100963.47
2018-10-03T09:45:46.721Z,100969.70
2018-10-03T09:48:33.749Z,100982.36
2018-10-03T09:51:21.062Z,100967.62
2018-10-03T09:54:08.510Z,100969.86
2018-10-03T09:56:56.104Z,100970.13
2018-10-03T09:59:44.706Z,100978.50
2018-10-03T10:04:55.527Z,100984.96
2018-10-03T10:07:42.948Z,100989.36
2018-10-03T10:10:31.808Z,100982.94
2018-10-03T10:13:20.866Z,100994.09
2018-10-03T10:19:14.796Z,101006.77
2018-10-03T10:25:08.606Z,101010.39
2018-10-03T10:27:56.204Z,101027.34
2018-10-03T10:30:43.932Z,101037.57
2018-10-03T10:33:31.610Z,101029.27
2018-10-03T10:36:18.956Z,101039.67
2018-10-03T10:39:06.360Z,101061.17
2018-10-03T10:41:53.923Z,101073.08
2018-10-03T10:44:42.052Z,101082.04
2018-10-03T10:47:29.117Z,101085.69
2018-10-03T10:50:16.804Z,101073.38
2018-10-03T10:56:10.341Z,101085.14
2018-10-03T10:58:57.712Z,101077.07
2018-10-03T11:01:44.868Z,101082.25
2018-10-03T11:04:31.997Z,101077.84
2018-10-03T11:07:19.397Z,101085.13
2018-10-03T11:10:09.844Z,101082.92
2018-10-03T11:12:55.369Z,101068.98
2018-10-03T11:18:49.051Z,101072.88
2018-10-03T11:21:36.681Z,101085.48
2018-10-03T11:24:24.422Z,101080.63
2018-10-03T11:27:11.521Z,101083.95
2018-10-03T11:29:58.973Z,101084.41
2018-10-03T11:32:46.327Z,101097.06
2018-10-03T11:35:35.250Z,101088.63
2018-10-03T11:38:22.851Z,101089.30
2018-10-03T11:41:10.299Z,101084.53
2018-10-03T11:43:57.791Z,101085.44
2018-10-03T11:46:44.834Z,101089.39
2018-10-03T11:49:32.261Z,101101.88
2018-10-03T11:52:20.579Z,101111.41
2018-10-03T11:55:08.374Z,101114.45
2018-10-03T11:57:55.862Z,101112.06
2018-10-03T12:00:43.362Z,101122.19
2018-10-03T12:06:37.386Z,101124.00
2018-10-03T12:09:25.063Z,101108.52
2018-10-03T12:12:12.397Z,101117.48
2018-10-03T12:14:59.842Z,101120.50
2018-10-03T12:17:48.313Z,101118.13
2018-10-03T12:20:36.869Z,101118.02
2018-10-03T12:23:39.861Z,101120.05
2018-10-03T12:26:42.324Z,101117.94
2018-10-03T12:29:29.606Z,101129.84
2018-10-03T12:32:16.971Z,101128.11
2018-10-03T12:35:03.946Z,101127.49
2018-10-03T12:37:55.137Z,101121.92
2018-10-03T12:40:42.523Z,101126.57
2018-10-03T12:43:30.136Z,101126.83
2018-10-03T12:46:25.238Z,101135.43
2018-10-03T12:49:12.427Z,101118.20
2018-10-03T12:51:59.684Z,101124.77
2018-10-03T12:54:46.897Z,101114.02
2018-10-03T12:57:34.648Z,101121.30
2018-10-03T13:00:21.860Z,101114.36
2018-10-03T13:03:09.432Z,101132.77
2018-10-03T13:05:56.708Z,101130.64
2018-10-03T13:08:44.009Z,101150.47
2018-10-03T13:11:32.384Z,101158.97
2018-10-03T13:14:20.620Z,101158.06
2018-10-03T13:17:10.279Z,101156.47
2018-10-03T13:19:55.913Z,101166.02
2018-10-03T13:22:43.331Z,101160.17
2018-10-03T13:25:31.650Z,101171.95
2018-10-03T13:28:19.010Z,101170.94
2018-10-03T13:31:06.407Z,101160.94
2018-10-03T13:33:53.943Z,101171.53
2018-10-03T13:36:41.632Z,101165.05
2018-10-03T13:39:32.512Z,101164.74
2018-10-03T13:42:31.192Z,101167.71
2018-10-03T13:45:20.922Z,101174.04
2018-10-03T13:48:16.311Z,101167.14
2018-10-03T13:51:15.592Z,101172.56
2018-10-03T13:54:03.087Z,101175.82
2018-10-03T13:56:58.187Z,101177.60
2018-10-03T13:59:45.300Z,101187.80
2018-10-03T14:02:32.625Z,101181.84
2018-10-03T14:05:19.946Z,101183.04
2018-10-03T14:08:07.005Z,101193.70
2018-10-03T14:10:55.324Z,101189.62
2018-10-03T14:13:42.359Z,101202.53
2018-10-03T14:16:29.722Z,101215.27
2018-10-03T14:19:17.045Z,101211.20
2018-10-03T14:22:04.505Z,101214.50
2018-10-03T14:24:51.636Z,101216.11
2018-10-03T14:27:38.814Z,101217.12
2018-10-03T14:30:27.286Z,101211.20
2018-10-03T14:33:14.688Z,101220.98
2018-10-03T14:39:09.012Z,101226.00
2018-10-03T14:45:02.546Z,101230.05
2018-10-03T14:47:49.966Z,101220.81
2018-10-03T14:50:38.556Z,101219.91
2018-10-03T14:53:26.004Z,101232.44
2018-10-03T14:56:13.612Z,101234.10
2018-10-03T14:59:01.949Z,101236.56
2018-10-03T15:01:49.622Z,101241.45
2018-10-03T15:04:37.036Z,101251.66
2018-10-03T15:07:24.219Z,101247.59
2018-10-03T15:10:12.648Z,101244.23
2018-10-03T15:12:59.962Z,101249.69
2018-10-03T15:15:47.307Z,101254.27
2018-10-03T15:21:40.726Z,101265.02
2018-10-03T15:24:30.618Z,101270.04
2018-10-03T15:27:15.796Z,101268.00
2018-10-03T15:30:03.046Z,101276.30
2018-10-03T15:32:50.538Z,101276.73
2018-10-03T15:35:38.006Z,101276.73
2018-10-03T15:38:25.222Z,101278.54
2018-10-03T15:41:12.656Z,101282.75
2018-10-03T15:44:00.381Z,101281.95
2018-10-03T15:46:48.006Z,101287.33
2018-10-03T15:49:35.583Z,101298.63
2018-10-03T15:52:22.960Z,101303.43
2018-10-03T15:55:10.771Z,101299.33
2018-10-03T15:57:58.951Z,101305.02
2018-10-03T16:00:46.353Z,101307.55
2018-10-03T16:03:41.350Z,101318.63
2018-10-03T16:06:29.178Z,101318.05
2018-10-03T16:09:16.398Z,101314.64
2018-10-03T16:12:03.453Z,101317.23
2018-10-03T16:14:50.689Z,101328.84
2018-10-03T16:17:37.908Z,101332.19
2018-10-03T16:20:24.959Z,101332.39
2018-10-03T16:23:12.589Z,101347.83
2018-10-03T16:29:06.202Z,101355.25
2018-10-03T16:31:53.729Z,101360.54
2018-10-03T16:34:40.982Z,101354.68
2018-10-03T16:37:28.669Z,101360.59
2018-10-03T16:40:15.703Z,101363.01
2018-10-03T16:43:02.763Z,101369.47
2018-10-03T16:45:51.496Z,101372.42
2018-10-03T16:48:38.486Z,101372.66
2018-10-03T16:51:25.498Z,101372.42
2018-10-03T16:54:12.806Z,101368.89
2018-10-03T16:57:00.382Z,101373.28
2018-10-03T16:59:47.563Z,101376.55
2018-10-03T17:02:34.924Z,101377.73
2018-10-03T17:05:25.146Z,101377.97
2018-10-03T17:08:14.144Z,101382.53
2018-10-03T17:11:02.920Z,101392.33
2018-10-03T17:13:49.912Z,101394.48
2018-10-03T17:16:42.353Z,101393.48
2018-10-03T17:19:29.687Z,101391.95
2018-10-03T17:22:17.615Z,101401.38
2018-10-03T17:25:05.050Z,101403.36
2018-10-03T17:28:07.716Z,101404.69
2018-10-03T17:30:54.930Z,101406.45
2018-10-03T17:36:50.535Z,101412.53
2018-10-03T17:39:38.322Z,101419.83
2018-10-03T17:42:25.465Z,101424.20
2018-10-03T17:45:13.433Z,101429.22
2018-10-03T17:48:02.017Z,101429.90
2018-10-03T17:50:50.518Z,101432.00
2018-10-03T17:53:37.965Z,101435.64
2018-10-03T17:56:25.952Z,101435.78
2018-10-03T17:59:13.588Z,101429.44
2018-10-03T18:02:01.845Z,101430.20
2018-10-03T18:04:49.410Z,101437.28
2018-10-03T18:07:37.280Z,101440.45
2018-10-03T18:13:31.107Z,101441.19
2018-10-03T18:16:19.247Z,101443.72
2018-10-03T18:22:15.256Z,101449.22
2018-10-03T18:25:03.667Z,101455.77
2018-10-03T18:27:55.995Z,101453.91
2018-10-03T18:30:44.159Z,101456.90
2018-10-03T18:33:32.977Z,101455.12
2018-10-03T18:36:21.529Z,101455.86
2018-10-03T18:39:12.363Z,101456.96
2018-10-03T18:42:01.513Z,101465.64
2018-10-03T18:44:55.372Z,101466.15
2018-10-03T18:47:45.977Z,101470.56
2018-10-03T18:50:34.684Z,101478.06
2018-10-03T18:53:22.564Z,101482.95
2018-10-03T18:56:09.408Z,101483.30
2018-10-03T18:58:57.635Z,101486.34
2018-10-03T19:01:44.968Z,101483.22
2018-10-03T19:04:39.524Z,101485.98
2018-10-03T19:07:38.008Z,101485.64
2018-10-03T19:10:25.516Z,101484.66
2018-10-03T19:13:14.251Z,101488.48
2018-10-03T19:16:01.995Z,101488.75
2018-10-03T19:18:49.869Z,101494.16
2018-10-03T19:21:37.332Z,101504.00
2018-10-03T19:24:24.751Z,101514.08
2018-10-03T19:27:15.342Z,101516.17
2018-10-03T19:30:02.634Z,101520.91
2018-10-03T19:32:49.959Z,101525.45
2018-10-03T19:35:37.282Z,101538.92
2018-10-03T19:38:24.352Z,101536.62
2018-10-03T19:41:12.179Z,101536.18
2018-10-03T19:43:59.406Z,101537.17
2018-10-03T19:46:46.759Z,101542.28
2018-10-03T19:49:34.546Z,101535.44
2018-10-03T19:52:24.362Z,101532.05
2018-10-03T19:55:11.529Z,101530.45
2018-10-03T19:57:58.969Z,101537.59
2018-10-03T20:00:47.034Z,101541.39
2018-10-03T20:03:34.287Z,101541.07
2018-10-03T20:06:21.906Z,101540.92
2018-10-03T20:09:09.085Z,101550.19
2018-10-03T20:12:01.224Z,101562.64
2018-10-03T20:14:48.763Z,101563.09
2018-10-03T20:17:36.083Z,101563.52
2018-10-03T20:20:24.488Z,101568.35
2018-10-03T20:23:12.019Z,101565.16
2018-10-03T20:25:59.782Z,101565.33
2018-10-03T20:28:48.580Z,101566.42
2018-10-03T20:31:40.152Z,101577.03
2018-10-03T20:34:30.984Z,101584.08
2018-10-03T20:37:16.086Z,101584.97
2018-10-03T20:40:03.459Z,101593.66
2018-10-03T20:42:51.611Z,101582.08
2018-10-03T20:45:39.212Z,101580.61
2018-10-03T20:51:32.639Z,101585.98
2018-10-03T20:54:21.087Z,101589.34
2018-10-03T20:57:09.170Z,101589.37
2018-10-03T20:59:56.437Z,101591.49
2018-10-03T21:02:44.633Z,101593.34
2018-10-03T21:05:33.016Z,101584.66
2018-10-03T21:08:20.235Z,101593.69
2018-10-03T21:11:07.865Z,101599.03
2018-10-03T21:13:55.248Z,101595.61
2018-10-03T21:16:46.457Z,101600.53
2018-10-03T21:22:42.077Z,101606.10
2018-10-03T21:25:29.297Z,101602.82
2018-10-03T21:34:30.242Z,101600.11
2018-10-03T21:37:17.325Z,101597.38
2018-10-03T21:40:04.767Z,101605.16
2018-10-03T21:42:54.162Z,101598.36
2018-10-03T21:45:48.741Z,101596.30
2018-10-03T21:48:36.941Z,101594.60
2018-10-03T21:51:24.682Z,101592.94
2018-10-03T21:54:11.810Z,101590.32
2018-10-03T21:57:05.471Z,101595.22
2018-10-03T21:59:52.877Z,101587.30
2018-10-03T22:02:48.526Z,101584.91
2018-10-03T22:05:37.161Z,101587.77
2018-10-03T22:08:24.253Z,101586.81
2018-10-03T22:11:14.233Z,101590.91
2018-10-03T22:14:05.254Z,101582.02
2018-10-03T22:16:52.799Z,101588.23
2018-10-03T22:19:58.868Z,101596.98
2018-10-03T22:22:46.931Z,101601.66
2018-10-03T22:25:34.205Z,101601.38
2018-10-03T22:28:21.669Z,101598.48
2018-10-03T22:31:08.959Z,101596.41
2018-10-03T22:33:56.869Z,101593.83
2018-10-03T22:36:44.373Z,101593.34
2018-10-03T22:39:33.206Z,101595.71
2018-10-03T22:42:21.446Z,101595.28
2018-10-03T22:45:09.310Z,101593.83
2018-10-03T22:47:57.005Z,101597.64
2018-10-03T22:50:44.978Z,101592.92
2018-10-03T22:53:32.423Z,101591.20
2018-10-03T22:56:19.828Z,101604.03
2018-10-03T22:59:06.955Z,101600.52
2018-10-03T23:01:55.322Z,101603.69
2018-10-03T23:04:42.521Z,101602.42
2018-10-03T23:07:31.656Z,101605.50
2018-10-03T23:10:19.146Z,101608.17
2018-10-03T23:13:06.574Z,101608.30
2018-10-03T23:15:53.900Z,101609.55
2018-10-03T23:18:41.976Z,101604.05
2018-10-03T23:21:29.352Z,101605.64
2018-10-03T23:24:16.581Z,101603.61
2018-10-03T23:30:12.144Z,101609.01
2018-10-03T23:32:59.209Z,101610.85
2018-10-03T23:35:46.597Z,101599.83
2018-10-03T23:38:34.162Z,101596.75
2018-10-03T23:41:21.764Z,101603.00
2018-10-03T23:44:09.980Z,101610.12
2018-10-03T23:46:57.144Z,101616.37
2018-10-03T23:49:45.457Z,101606.13
2018-10-03T23:52:32.261Z,101614.15
2018-10-03T23:55:19.769Z,101618.12
2018-10-03T23:58:07.508Z,101622.07
